Time;durP1;ratioP1;P1;durP2;ratioP2;P2;SDS_P1;SDS_P2;PMS_P1;PMS_P2;Temp;Humidity;BMP_temperature;BMP_pressure;BME280_temperature;BME280_humidity;BME280_pressure;Samples;Min_cycle;Max_cycle;Signal;HPM_P1;HPM_P2
2022/01/16 00:01:14;;;;;;;67.95;26.98;;;;;;;;;;5071649;28;20045;-64
2022/01/16 00:06:25;;;;;;;74.18;29.35;;;;;;;;;;5071600;28;20101;-64
2022/01/16 00:08:51;;;;;;;65.13;27.83;;;;;;;;;;5071080;28;20048;-64
2022/01/16 00:11:17;;;;;;;67.13;28.23;;;;;;;;;;5071671;28;20041;-64
2022/01/16 00:13:43;;;;;;;72.20;28.80;;;;;;;;;;5071435;28;20040;-64
2022/01/16 00:16:13;;;;;;;69.82;27.92;;;;;;;;;;5070909;28;20494;-64
2022/01/16 00:18:58;;;;;;;69.45;28.35;;;;;;;;;;5067178;28;20384;-64
2022/01/16 00:21:26;;;;;;;76.97;30.00;;;;;;;;;;5052869;28;20047;-64
2022/01/16 00:23:53;;;;;;;66.65;27.33;;;;;;;;;;5070707;28;20064;-64
2022/01/16 00:26:19;;;;;;;68.00;27.65;;;;;;;;;;5069765;28;20044;-64
2022/01/16 00:28:47;;;;;;;65.35;26.17;;;;;;;;;;5071456;28;20495;-64
2022/01/16 00:31:14;;;;;;;62.45;27.13;;;;;;;;;;5070612;28;20049;-64
2022/01/16 00:33:42;;;;;;;68.00;25.58;;;;;;;;;;5071407;28;20116;-64
2022/01/16 00:36:08;;;;;;;65.60;26.13;;;;;;;;;;5052204;28;20091;-64
2022/01/16 00:38:35;;;;;;;63.40;25.02;;;;;;;;;;5050719;28;20560;-64
2022/01/16 00:41:01;;;;;;;57.50;23.33;;;;;;;;;;5051301;28;20044;-64
2022/01/16 00:43:27;;;;;;;54.45;22.73;;;;;;;;;;5051069;28;20056;-64
2022/01/16 00:45:53;;;;;;;57.90;21.70;;;;;;;;;;5050543;28;20419;-64
2022/01/16 00:48:19;;;;;;;58.58;23.92;;;;;;;;;;5049828;28;20052;-64
2022/01/16 00:50:45;;;;;;;60.25;21.67;;;;;;;;;;5051343;28;20450;-64
2022/01/16 00:53:11;;;;;;;62.38;23.52;;;;;;;;;;5069304;28;20044;-64
2022/01/16 00:55:38;;;;;;;63.88;24.20;;;;;;;;;;5069984;28;20491;-64
2022/01/16 00:58:05;;;;;;;65.20;23.27;;;;;;;;;;5103369;28;20072;-64
2022/01/16 01:00:32;;;;;;;67.13;24.80;;;;;;;;;;5069240;28;20068;-64
2022/01/16 01:02:58;;;;;;;72.20;25.35;;;;;;;;;;5071266;28;20040;-64
2022/01/16 01:05:25;;;;;;;65.57;25.08;;;;;;;;;;5070880;28;20132;-63
2022/01/16 01:07:51;;;;;;;67.07;25.58;;;;;;;;;;5070711;28;20040;-63
2022/01/16 01:10:18;;;;;;;70.57;25.63;;;;;;;;;;5071091;28;20099;-63
2022/01/16 01:12:55;;;;;;;72.90;25.73;;;;;;;;;;5103409;28;20076;-63
2022/01/16 01:15:25;;;;;;;76.05;27.35;;;;;;;;;;5070731;28;20044;-63
2022/01/16 01:17:52;;;;;;;77.18;26.30;;;;;;;;;;5074948;28;20071;-63
2022/01/16 01:20:19;;;;;;;74.63;25.80;;;;;;;;;;5107465;28;20056;-63
2022/01/16 01:22:46;;;;;;;73.20;25.42;;;;;;;;;;5074261;28;20053;-64
2022/01/16 01:25:13;;;;;;;80.13;27.75;;;;;;;;;;5073023;28;20122;-63
2022/01/16 01:27:41;;;;;;;74.00;27.17;;;;;;;;;;5074233;28;20063;-63
2022/01/16 01:30:09;;;;;;;83.03;28.58;;;;;;;;;;5073717;28;20186;-64
2022/01/16 01:32:37;;;;;;;78.00;27.48;;;;;;;;;;5074638;28;20041;-63
2022/01/16 01:35:07;;;;;;;79.68;27.92;;;;;;;;;;5073175;28;20139;-63
2022/01/16 01:37:33;;;;;;;78.03;28.48;;;;;;;;;;5073439;28;20052;-63
2022/01/16 01:39:59;;;;;;;83.20;30.02;;;;;;;;;;5074103;28;20040;-64
2022/01/16 01:42:35;;;;;;;83.07;30.50;;;;;;;;;;5074349;28;20047;-64
2022/01/16 01:53:16;;;;;;;90.40;30.70;;;;;;;;;;5071920;28;20048;-64
2022/01/16 01:55:44;;;;;;;82.70;28.20;;;;;;;;;;5073994;28;20048;-64
2022/01/16 01:58:10;;;;;;;99.32;32.88;;;;;;;;;;5072651;28;20044;-63
2022/01/16 02:00:37;;;;;;;85.97;31.25;;;;;;;;;;5072999;28;20051;-63
2022/01/16 02:03:10;;;;;;;99.65;33.83;;;;;;;;;;5072651;28;20041;-64
2022/01/16 02:05:37;;;;;;;88.05;32.15;;;;;;;;;;5073951;28;20041;-63
2022/01/16 02:08:06;;;;;;;91.32;31.73;;;;;;;;;;5073362;28;20041;-63
2022/01/16 02:10:33;;;;;;;95.88;32.70;;;;;;;;;;5073952;28;20474;-63
2022/01/16 02:13:03;;;;;;;101.43;32.50;;;;;;;;;;5072400;28;20044;-63
2022/01/16 02:15:41;;;;;;;99.32;35.38;;;;;;;;;;5071428;28;20409;-63
2022/01/16 02:31:45;;;;;;;102.30;32.70;;;;;;;;;;5073211;28;20041;-63
2022/01/16 02:37:04;;;;;;;91.97;31.10;;;;;;;;;;5072306;28;20051;-64
2022/01/16 02:39:34;;;;;;;93.10;30.13;;;;;;;;;;5105722;28;20040;-63
2022/01/16 02:42:00;;;;;;;87.20;31.27;;;;;;;;;;5073202;28;20040;-64
2022/01/16 02:46:52;;;;;;;92.30;32.63;;;;;;;;;;5105532;28;20044;-64
2022/01/16 02:49:26;;;;;;;92.85;30.17;;;;;;;;;;5073000;28;20079;-64
2022/01/16 02:51:56;;;;;;;104.07;33.58;;;;;;;;;;5072346;28;20040;-64
2022/01/16 02:54:24;;;;;;;110.10;32.50;;;;;;;;;;5072839;28;20040;-64
2022/01/16 02:56:50;;;;;;;110.03;33.10;;;;;;;;;;5105494;28;20060;-64
2022/01/16 02:59:21;;;;;;;115.90;35.47;;;;;;;;;;5104542;28;20045;-64
2022/01/16 03:01:48;;;;;;;108.40;34.55;;;;;;;;;;5072822;28;20519;-64
2022/01/16 03:04:14;;;;;;;116.57;35.10;;;;;;;;;;5072556;28;20360;-64
2022/01/16 03:06:40;;;;;;;111.68;33.70;;;;;;;;;;5072132;28;20033;-64
2022/01/16 03:09:07;;;;;;;104.65;33.72;;;;;;;;;;5072380;28;20072;-64
2022/01/16 03:11:39;;;;;;;118.15;36.40;;;;;;;;;;5072614;28;20048;-64
2022/01/16 03:14:08;;;;;;;114.65;36.10;;;;;;;;;;5071589;28;20048;-64
2022/01/16 03:16:34;;;;;;;104.75;32.55;;;;;;;;;;5072551;28;20044;-64
2022/01/16 03:21:53;;;;;;;105.25;33.92;;;;;;;;;;5071773;28;20138;-64
2022/01/16 03:24:21;;;;;;;100.63;31.60;;;;;;;;;;5070689;28;20127;-64
2022/01/16 03:26:47;;;;;;;101.50;31.73;;;;;;;;;;5057604;28;20056;-64
2022/01/16 03:29:13;;;;;;;104.43;32.20;;;;;;;;;;5051599;28;20128;-64
2022/01/16 03:31:39;;;;;;;105.20;34.03;;;;;;;;;;5052188;28;20059;-64
2022/01/16 03:34:05;;;;;;;108.43;34.65;;;;;;;;;;5052113;28;20120;-64
2022/01/16 03:36:31;;;;;;;103.00;32.80;;;;;;;;;;5051645;28;20128;-64
2022/01/16 03:38:57;;;;;;;104.18;34.55;;;;;;;;;;5049963;28;20041;-64
2022/01/16 03:41:27;;;;;;;105.70;34.30;;;;;;;;;;5050654;28;20128;-64
2022/01/16 03:43:53;;;;;;;103.25;32.58;;;;;;;;;;5051189;28;20404;-64
2022/01/16 03:46:19;;;;;;;107.03;31.35;;;;;;;;;;5051865;28;20041;-64
2022/01/16 03:48:45;;;;;;;98.63;30.85;;;;;;;;;;5052004;28;20444;-64
2022/01/16 03:51:11;;;;;;;99.68;31.73;;;;;;;;;;5049826;28;20112;-64
2022/01/16 03:53:37;;;;;;;98.53;31.27;;;;;;;;;;5051623;28;20045;-64
2022/01/16 03:56:04;;;;;;;103.22;33.35;;;;;;;;;;5051940;28;20155;-63
2022/01/16 03:58:29;;;;;;;105.95;32.60;;;;;;;;;;5051293;28;20037;-64
2022/01/16 04:00:56;;;;;;;101.60;30.88;;;;;;;;;;5050165;28;20487;-64
2022/01/16 04:03:22;;;;;;;102.00;31.77;;;;;;;;;;5051701;28;20539;-64
2022/01/16 04:05:48;;;;;;;105.60;31.48;;;;;;;;;;5051062;28;20041;-64
2022/01/16 04:08:14;;;;;;;104.10;31.77;;;;;;;;;;5051877;28;20377;-64
2022/01/16 04:10:40;;;;;;;113.13;33.25;;;;;;;;;;5050207;28;20048;-64
2022/01/16 04:13:07;;;;;;;108.97;32.83;;;;;;;;;;5082937;28;20040;-64
2022/01/16 04:15:34;;;;;;;113.90;33.65;;;;;;;;;;5051608;28;20044;-64
2022/01/16 04:18:01;;;;;;;104.75;32.22;;;;;;;;;;5051290;28;20043;-64
2022/01/16 04:20:27;;;;;;;99.72;32.20;;;;;;;;;;5049344;28;20106;-64
2022/01/16 04:22:53;;;;;;;104.43;31.27;;;;;;;;;;5051133;28;20094;-64
2022/01/16 04:25:19;;;;;;;107.35;31.70;;;;;;;;;;5053342;28;20053;-64
2022/01/16 04:27:45;;;;;;;106.75;32.47;;;;;;;;;;5070976;28;20573;-64
2022/01/16 04:30:11;;;;;;;116.18;34.60;;;;;;;;;;5071558;28;20036;-64
2022/01/16 04:32:38;;;;;;;106.13;33.70;;;;;;;;;;5070389;28;20378;-64
2022/01/16 04:35:05;;;;;;;100.60;31.90;;;;;;;;;;5069211;28;20048;-64
2022/01/16 04:37:31;;;;;;;113.13;33.38;;;;;;;;;;5070026;28;20106;-64
2022/01/16 04:40:00;;;;;;;106.90;31.25;;;;;;;;;;5071227;28;20127;-64
2022/01/16 04:45:12;;;;;;;106.47;32.45;;;;;;;;;;5071028;28;20044;-64
2022/01/16 04:47:38;;;;;;;104.85;30.98;;;;;;;;;;5071407;28;20032;-64
2022/01/16 04:50:05;;;;;;;96.07;31.88;;;;;;;;;;5070679;28;20040;-64
2022/01/16 04:52:31;;;;;;;113.78;33.80;;;;;;;;;;5075468;28;20098;-64
2022/01/16 04:54:57;;;;;;;112.70;33.80;;;;;;;;;;5073897;28;20398;-64
2022/01/16 04:57:23;;;;;;;108.18;34.08;;;;;;;;;;5074751;28;20048;-64
2022/01/16 04:59:49;;;;;;;109.35;32.30;;;;;;;;;;5074828;28;20074;-64
2022/01/16 05:02:15;;;;;;;118.03;33.65;;;;;;;;;;5074743;28;20124;-64
2022/01/16 05:04:41;;;;;;;105.22;34.00;;;;;;;;;;5073995;28;20040;-64
2022/01/16 05:07:07;;;;;;;108.47;34.83;;;;;;;;;;5107420;28;20072;-64
2022/01/16 05:09:33;;;;;;;112.32;35.42;;;;;;;;;;5074776;28;20491;-64
2022/01/16 05:12:02;;;;;;;105.57;34.08;;;;;;;;;;5074209;28;20071;-64
2022/01/16 05:17:13;;;;;;;107.68;33.60;;;;;;;;;;5107311;28;20052;-64
2022/01/16 05:19:39;;;;;;;118.20;34.38;;;;;;;;;;5074137;28;20044;-64
2022/01/16 05:22:05;;;;;;;114.95;34.40;;;;;;;;;;5106983;28;20127;-64
2022/01/16 05:24:34;;;;;;;108.13;32.80;;;;;;;;;;5074334;28;20090;-64
2022/01/16 05:27:00;;;;;;;105.53;33.45;;;;;;;;;;5093225;28;20056;-64
2022/01/16 05:29:26;;;;;;;97.22;30.15;;;;;;;;;;5074484;28;20607;-64
2022/01/16 05:31:52;;;;;;;105.07;33.30;;;;;;;;;;5074349;28;20043;-64
2022/01/16 05:34:18;;;;;;;105.78;33.83;;;;;;;;;;5073532;28;20045;-64
2022/01/16 05:36:44;;;;;;;108.45;34.50;;;;;;;;;;5074488;28;20454;-64
2022/01/16 05:39:11;;;;;;;96.47;30.38;;;;;;;;;;5074122;28;20036;-64
2022/01/16 05:41:37;;;;;;;105.80;33.78;;;;;;;;;;5073628;28;20047;-64
2022/01/16 05:44:03;;;;;;;114.75;34.55;;;;;;;;;;5073877;28;20087;-64
2022/01/16 05:46:29;;;;;;;96.78;32.60;;;;;;;;;;5073911;28;20037;-64
2022/01/16 05:48:55;;;;;;;111.60;34.50;;;;;;;;;;5073550;28;20165;-64
2022/01/16 05:51:22;;;;;;;106.93;34.13;;;;;;;;;;5073912;28;20069;-64
2022/01/16 05:53:50;;;;;;;107.97;34.80;;;;;;;;;;5072574;28;20044;-64
2022/01/16 05:56:16;;;;;;;117.35;35.92;;;;;;;;;;5072482;28;20048;-64
2022/01/16 05:58:42;;;;;;;114.43;35.08;;;;;;;;;;5073871;28;20044;-64
2022/01/16 06:01:09;;;;;;;108.90;35.05;;;;;;;;;;5073400;28;20463;-64
2022/01/16 06:03:35;;;;;;;109.90;34.42;;;;;;;;;;5072650;28;20044;-64
2022/01/16 06:06:01;;;;;;;118.30;33.97;;;;;;;;;;5073372;28;20044;-64
2022/01/16 06:08:27;;;;;;;107.75;34.97;;;;;;;;;;5072600;28;20047;-64
2022/01/16 06:10:54;;;;;;;118.03;34.70;;;;;;;;;;5073951;28;20483;-64
2022/01/16 06:13:20;;;;;;;117.50;36.55;;;;;;;;;;5073018;28;20438;-64
2022/01/16 06:15:46;;;;;;;109.80;33.95;;;;;;;;;;5073802;28;20057;-64
2022/01/16 06:18:13;;;;;;;117.40;34.75;;;;;;;;;;5073655;28;20098;-64
2022/01/16 06:20:40;;;;;;;109.13;33.85;;;;;;;;;;5072915;28;20371;-64
2022/01/16 06:23:07;;;;;;;116.55;35.38;;;;;;;;;;5071939;28;20086;-64
2022/01/16 06:25:33;;;;;;;126.68;36.10;;;;;;;;;;5073348;28;20359;-64
2022/01/16 06:27:59;;;;;;;118.45;35.70;;;;;;;;;;5072637;28;20063;-64
2022/01/16 06:30:25;;;;;;;121.65;37.65;;;;;;;;;;5073630;28;20604;-64
2022/01/16 06:32:51;;;;;;;118.25;36.05;;;;;;;;;;5073563;28;20048;-64
2022/01/16 06:35:17;;;;;;;116.13;35.35;;;;;;;;;;5072714;28;20127;-64
2022/01/16 06:37:44;;;;;;;123.45;37.28;;;;;;;;;;5073469;28;20041;-64
2022/01/16 06:40:11;;;;;;;128.95;36.83;;;;;;;;;;5105849;28;20101;-64
2022/01/16 06:42:38;;;;;;;126.80;36.75;;;;;;;;;;5072672;28;20372;-64
2022/01/16 06:45:08;;;;;;;127.47;36.97;;;;;;;;;;5073051;28;20048;-64
2022/01/16 06:47:34;;;;;;;129.32;35.22;;;;;;;;;;5072939;28;20087;-64
2022/01/16 06:50:00;;;;;;;122.05;36.65;;;;;;;;;;5072249;28;20119;-64
2022/01/16 06:52:26;;;;;;;137.80;38.85;;;;;;;;;;5073278;28;20774;-64
2022/01/16 06:54:52;;;;;;;127.50;36.95;;;;;;;;;;5073117;28;20123;-64
2022/01/16 06:57:18;;;;;;;132.30;38.95;;;;;;;;;;5072497;28;20036;-64
2022/01/16 06:59:45;;;;;;;120.55;36.03;;;;;;;;;;5072843;28;20036;-64
2022/01/16 07:02:12;;;;;;;129.13;37.38;;;;;;;;;;5072902;28;20043;-63
2022/01/16 07:04:38;;;;;;;133.90;37.88;;;;;;;;;;5071791;28;20048;-64
2022/01/16 07:07:04;;;;;;;124.65;38.13;;;;;;;;;;5071329;28;20502;-64
2022/01/16 07:09:30;;;;;;;124.35;36.35;;;;;;;;;;5071429;28;20037;-64
2022/01/16 07:11:56;;;;;;;121.45;37.97;;;;;;;;;;5071936;28;20036;-64
2022/01/16 07:14:22;;;;;;;119.47;36.95;;;;;;;;;;5071667;28;20076;-64
2022/01/16 07:16:48;;;;;;;122.65;39.58;;;;;;;;;;5072778;28;20050;-64
2022/01/16 07:19:14;;;;;;;118.20;36.70;;;;;;;;;;5071851;28;20123;-64
2022/01/16 07:21:41;;;;;;;136.57;38.03;;;;;;;;;;5072611;28;20037;-64
2022/01/16 07:24:07;;;;;;;129.90;37.85;;;;;;;;;;5072308;28;20076;-64
2022/01/16 07:26:33;;;;;;;135.60;40.95;;;;;;;;;;5071373;28;20049;-64
2022/01/16 07:28:59;;;;;;;134.20;39.65;;;;;;;;;;5072180;28;20075;-64
2022/01/16 07:31:25;;;;;;;122.43;38.58;;;;;;;;;;5072344;28;20707;-64
2022/01/16 07:33:51;;;;;;;130.93;38.47;;;;;;;;;;5071449;28;20044;-64
2022/01/16 07:36:17;;;;;;;128.48;36.88;;;;;;;;;;5071547;28;20513;-64
2022/01/16 07:38:43;;;;;;;122.45;36.92;;;;;;;;;;5071962;28;20044;-64
2022/01/16 07:41:09;;;;;;;124.00;39.92;;;;;;;;;;5071318;28;20040;-64
2022/01/16 07:43:35;;;;;;;116.88;37.88;;;;;;;;;;5071912;28;20089;-64
2022/01/16 07:46:01;;;;;;;133.35;40.17;;;;;;;;;;5070416;28;20472;-64
2022/01/16 07:48:27;;;;;;;125.68;39.42;;;;;;;;;;5071104;28;20090;-64
2022/01/16 07:50:53;;;;;;;130.13;39.60;;;;;;;;;;5072014;28;20036;-64
2022/01/16 07:53:19;;;;;;;124.05;38.75;;;;;;;;;;5070269;28;20048;-64
2022/01/16 07:55:45;;;;;;;129.63;40.10;;;;;;;;;;5071155;28;20051;-64
2022/01/16 07:58:11;;;;;;;126.57;38.03;;;;;;;;;;5071749;28;20078;-64
2022/01/16 08:00:37;;;;;;;130.82;42.03;;;;;;;;;;5071766;28;20044;-64
2022/01/16 08:03:03;;;;;;;132.00;41.25;;;;;;;;;;5069544;28;20056;-64
2022/01/16 08:05:30;;;;;;;117.03;36.10;;;;;;;;;;5071749;28;20455;-64
2022/01/16 08:07:56;;;;;;;124.45;40.53;;;;;;;;;;5071647;28;20117;-64
2022/01/16 08:10:22;;;;;;;130.68;42.13;;;;;;;;;;5070802;28;20171;-64
2022/01/16 08:12:48;;;;;;;123.53;40.97;;;;;;;;;;5071779;28;20068;-64
2022/01/16 08:15:14;;;;;;;119.72;39.83;;;;;;;;;;5071409;28;20044;-64
2022/01/16 08:17:40;;;;;;;126.07;42.10;;;;;;;;;;5071242;28;20592;-63
2022/01/16 08:20:08;;;;;;;120.20;40.08;;;;;;;;;;5071672;28;20123;-64
2022/01/16 08:22:34;;;;;;;117.72;38.25;;;;;;;;;;5071745;28;20055;-64
2022/01/16 08:25:00;;;;;;;122.93;40.22;;;;;;;;;;5070645;28;20399;-64
2022/01/16 08:27:26;;;;;;;118.13;40.28;;;;;;;;;;5071246;28;20158;-64
2022/01/16 08:29:52;;;;;;;117.43;39.80;;;;;;;;;;5071508;28;20033;-64
2022/01/16 08:32:19;;;;;;;123.22;40.53;;;;;;;;;;5070901;28;20064;-64
2022/01/16 08:34:45;;;;;;;112.78;38.03;;;;;;;;;;5071340;28;20086;-64
2022/01/16 08:37:11;;;;;;;120.35;40.33;;;;;;;;;;5071569;28;20536;-64
2022/01/16 08:39:37;;;;;;;114.40;39.85;;;;;;;;;;5069211;28;20082;-64
2022/01/16 08:42:03;;;;;;;119.20;43.75;;;;;;;;;;5071257;28;20051;-64
2022/01/16 08:44:29;;;;;;;116.80;39.85;;;;;;;;;;5070003;28;20060;-64
2022/01/16 08:46:55;;;;;;;112.15;39.85;;;;;;;;;;5070747;28;20794;-64
2022/01/16 08:49:21;;;;;;;97.45;37.13;;;;;;;;;;5071317;28;20055;-64
2022/01/16 08:51:47;;;;;;;105.97;38.42;;;;;;;;;;5071378;28;20040;-64
2022/01/16 08:54:13;;;;;;;103.10;38.20;;;;;;;;;;5070702;28;20151;-64
2022/01/16 08:56:39;;;;;;;102.15;37.08;;;;;;;;;;5071304;28;20040;-64
2022/01/16 08:59:05;;;;;;;107.97;37.90;;;;;;;;;;5071340;28;20044;-64
2022/01/16 09:01:31;;;;;;;105.47;38.25;;;;;;;;;;5069189;28;20040;-64
2022/01/16 09:03:57;;;;;;;104.82;39.40;;;;;;;;;;5069540;28;20049;-64
2022/01/16 09:06:23;;;;;;;94.43;37.33;;;;;;;;;;5071262;28;20098;-64
2022/01/16 09:08:49;;;;;;;102.20;37.90;;;;;;;;;;5070145;28;20071;-64
2022/01/16 09:11:15;;;;;;;92.00;35.17;;;;;;;;;;5070933;28;20090;-64
2022/01/16 09:13:41;;;;;;;99.18;39.10;;;;;;;;;;5069818;28;20047;-64
2022/01/16 09:16:08;;;;;;;100.63;39.03;;;;;;;;;;5069254;28;20048;-64
2022/01/16 09:18:34;;;;;;;91.68;36.45;;;;;;;;;;5071048;28;20072;-64
2022/01/16 09:21:01;;;;;;;99.90;36.30;;;;;;;;;;5069507;28;20041;-64
2022/01/16 09:23:28;;;;;;;85.57;37.13;;;;;;;;;;5070848;28;20059;-64
2022/01/16 09:25:54;;;;;;;90.10;35.55;;;;;;;;;;5068758;28;20098;-64
2022/01/16 09:28:20;;;;;;;92.43;36.28;;;;;;;;;;5070896;28;20033;-64
2022/01/16 09:30:46;;;;;;;89.90;34.97;;;;;;;;;;5070536;28;20048;-64
2022/01/16 09:33:12;;;;;;;88.15;37.08;;;;;;;;;;5070068;28;20127;-64
2022/01/16 09:35:38;;;;;;;77.75;33.40;;;;;;;;;;5070966;28;20098;-64
2022/01/16 09:38:05;;;;;;;82.50;34.92;;;;;;;;;;5074031;28;20040;-64
2022/01/16 09:40:31;;;;;;;87.20;34.60;;;;;;;;;;5055795;28;20041;-64
2022/01/16 09:42:57;;;;;;;83.63;34.42;;;;;;;;;;5074405;28;20048;-64
2022/01/16 09:45:23;;;;;;;84.00;32.55;;;;;;;;;;5074322;28;20063;-64
2022/01/16 09:47:49;;;;;;;72.50;32.75;;;;;;;;;;5073740;28;20044;-64
2022/01/16 09:50:25;;;;;;;79.50;32.65;;;;;;;;;;5074304;28;20085;-64
2022/01/16 09:52:51;;;;;;;78.72;33.80;;;;;;;;;;5074129;28;20479;-64
2022/01/16 09:55:18;;;;;;;84.50;32.33;;;;;;;;;;5073496;28;20383;-64
2022/01/16 09:57:45;;;;;;;68.10;30.50;;;;;;;;;;5074139;28;20040;-65
2022/01/16 10:00:12;;;;;;;73.70;32.72;;;;;;;;;;5073840;28;20102;-64
2022/01/16 10:02:39;;;;;;;78.90;33.35;;;;;;;;;;5071906;28;20033;-64
2022/01/16 10:05:21;;;;;;;82.65;33.05;;;;;;;;;;5072481;28;20055;-64
2022/01/16 10:07:47;;;;;;;76.65;32.38;;;;;;;;;;5072303;28;20090;-64
2022/01/16 10:10:13;;;;;;;86.65;37.85;;;;;;;;;;5073304;28;20041;-64
2022/01/16 10:12:46;;;;;;;81.28;33.90;;;;;;;;;;5073961;28;20043;-64
2022/01/16 10:15:24;;;;;;;75.07;32.40;;;;;;;;;;5072251;28;20048;-64
2022/01/16 10:17:51;;;;;;;74.28;31.63;;;;;;;;;;5072573;28;20076;-64
2022/01/16 10:20:17;;;;;;;73.90;31.45;;;;;;;;;;5073808;28;20078;-64
2022/01/16 10:22:47;;;;;;;68.28;29.92;;;;;;;;;;5072249;28;20048;-64
2022/01/16 10:25:14;;;;;;;73.80;31.42;;;;;;;;;;5071928;28;20040;-64
2022/01/16 10:27:41;;;;;;;75.50;30.67;;;;;;;;;;5073268;28;20049;-64
2022/01/16 10:30:08;;;;;;;66.95;30.60;;;;;;;;;;5073215;28;20072;-64
2022/01/16 10:32:38;;;;;;;70.30;32.80;;;;;;;;;;5073347;28;20047;-64
2022/01/16 10:35:14;;;;;;;71.53;32.90;;;;;;;;;;5072085;28;20079;-64
2022/01/16 10:37:47;;;;;;;61.03;31.45;;;;;;;;;;5072741;28;20048;-64
2022/01/16 10:40:24;;;;;;;64.72;28.08;;;;;;;;;;5073055;28;20032;-64
2022/01/16 10:42:51;;;;;;;63.42;29.88;;;;;;;;;;5073326;28;20123;-64
2022/01/16 10:45:18;;;;;;;63.72;28.58;;;;;;;;;;5072146;28;20044;-64
2022/01/16 10:47:51;;;;;;;60.65;27.35;;;;;;;;;;5073089;28;20043;-64
2022/01/16 10:50:17;;;;;;;54.70;27.25;;;;;;;;;;5072927;28;20050;-64
2022/01/16 10:52:55;;;;;;;55.03;26.17;;;;;;;;;;5072293;28;20040;-64
2022/01/16 10:55:24;;;;;;;56.55;25.20;;;;;;;;;;5072984;28;20051;-64
2022/01/16 10:57:50;;;;;;;54.83;25.10;;;;;;;;;;5073080;28;20052;-64
2022/01/16 11:00:21;;;;;;;44.17;23.17;;;;;;;;;;5072046;28;20040;-64
2022/01/16 11:02:49;;;;;;;50.63;23.58;;;;;;;;;;5072852;28;20051;-64
2022/01/16 11:05:16;;;;;;;47.83;23.70;;;;;;;;;;5072627;28;20044;-64
2022/01/16 11:07:42;;;;;;;47.70;22.20;;;;;;;;;;5070974;28;20548;-64
2022/01/16 11:10:24;;;;;;;52.88;23.95;;;;;;;;;;5105330;28;20135;-64
2022/01/16 11:12:50;;;;;;;53.28;24.67;;;;;;;;;;5072711;28;20040;-64
2022/01/16 11:15:17;;;;;;;46.15;20.92;;;;;;;;;;5104401;28;20084;-64
2022/01/16 11:17:43;;;;;;;48.92;21.15;;;;;;;;;;5072672;28;20075;-64
2022/01/16 11:20:10;;;;;;;43.58;19.40;;;;;;;;;;5072475;28;20384;-64
2022/01/16 11:22:56;;;;;;;44.95;19.83;;;;;;;;;;5104601;28;20044;-64
2022/01/16 11:25:31;;;;;;;40.97;18.40;;;;;;;;;;5071642;28;20427;-64
2022/01/16 11:28:08;;;;;;;36.85;17.73;;;;;;;;;;5072450;28;20048;-64
2022/01/16 11:30:36;;;;;;;38.60;18.00;;;;;;;;;;5071719;28;20102;-64
2022/01/16 11:33:02;;;;;;;38.13;16.30;;;;;;;;;;5072288;28;20044;-64
2022/01/16 11:35:29;;;;;;;37.33;16.95;;;;;;;;;;5072195;28;20060;-64
2022/01/16 11:37:55;;;;;;;36.33;16.45;;;;;;;;;;5071653;28;20098;-64
2022/01/16 11:40:38;;;;;;;34.03;16.35;;;;;;;;;;5072034;28;20403;-64
2022/01/16 11:43:04;;;;;;;;;;;;;;;;;;5072526;28;20052;-64
2022/01/16 11:45:30;;;;;;;31.20;14.68;;;;;;;;;;5071038;28;19923;-64
2022/01/16 11:47:58;;;;;;;25.83;13.15;;;;;;;;;;5072129;28;20044;-64
2022/01/16 11:50:33;;;;;;;31.38;13.93;;;;;;;;;;5072118;28;20575;-64
2022/01/16 11:52:59;;;;;;;31.70;12.45;;;;;;;;;;5071249;28;20089;-64
2022/01/16 11:55:33;;;;;;;25.00;12.02;;;;;;;;;;5071992;28;20044;-64
2022/01/16 11:58:00;;;;;;;29.77;12.68;;;;;;;;;;5070674;28;20056;-64
2022/01/16 12:00:41;;;;;;;29.60;11.98;;;;;;;;;;5069371;28;20048;-64
2022/01/16 12:03:27;;;;;;;27.63;11.18;;;;;;;;;;5071743;28;20530;-64
2022/01/16 12:05:56;;;;;;;21.15;10.85;;;;;;;;;;5071309;28;20036;-64
2022/01/16 12:08:33;;;;;;;25.13;11.18;;;;;;;;;;5071228;28;20076;-64
2022/01/16 12:10:59;;;;;;;20.85;10.25;;;;;;;;;;5070274;28;20403;-64
2022/01/16 12:13:45;;;;;;;20.45;10.15;;;;;;;;;;5071766;28;20037;-64
2022/01/16 12:16:35;;;;;;;24.23;10.20;;;;;;;;;;5070271;28;20089;-64
2022/01/16 12:19:19;;;;;;;22.63;9.38;;;;;;;;;;5068391;28;20494;-64
2022/01/16 12:21:55;;;;;;;23.05;10.15;;;;;;;;;;5069661;28;20123;-64
2022/01/16 12:24:36;;;;;;;23.45;10.20;;;;;;;;;;5071539;28;20150;-64
2022/01/16 12:27:21;;;;;;;22.75;9.25;;;;;;;;;;5069819;28;20483;-64
2022/01/16 12:30:13;;;;;;;22.42;9.20;;;;;;;;;;5070801;28;20048;-64
2022/01/16 12:33:11;;;;;;;18.23;9.00;;;;;;;;;;5070070;28;20041;-64
2022/01/16 12:35:39;;;;;;;20.13;9.68;;;;;;;;;;5071664;28;20040;-64
2022/01/16 12:38:06;;;;;;;22.90;9.80;;;;;;;;;;5070897;28;20040;-64
2022/01/16 12:40:32;;;;;;;16.90;9.00;;;;;;;;;;5071433;28;20128;-64
2022/01/16 12:43:00;;;;;;;17.45;8.10;;;;;;;;;;5103806;28;20044;-64
2022/01/16 12:45:26;;;;;;;16.10;7.85;;;;;;;;;;5070739;28;20371;-64
2022/01/16 12:47:53;;;;;;;16.98;7.90;;;;;;;;;;5071428;28;20036;-64
2022/01/16 12:50:19;;;;;;;13.02;7.30;;;;;;;;;;5071544;28;20040;-64
2022/01/16 12:52:46;;;;;;;17.58;8.05;;;;;;;;;;5103342;28;20052;-64
2022/01/16 12:55:12;;;;;;;22.42;7.72;;;;;;;;;;5071338;28;20169;-64
2022/01/16 12:57:38;;;;;;;17.75;8.15;;;;;;;;;;5070991;28;20048;-64
2022/01/16 13:00:14;;;;;;;16.40;8.25;;;;;;;;;;5070564;28;20095;-64
2022/01/16 13:02:40;;;;;;;20.75;8.18;;;;;;;;;;5071206;28;20076;-64
2022/01/16 13:05:06;;;;;;;17.33;8.13;;;;;;;;;;5070738;28;20838;-64
2022/01/16 13:07:33;;;;;;;18.50;8.45;;;;;;;;;;5103162;28;20063;-64
2022/01/16 13:09:59;;;;;;;17.50;8.02;;;;;;;;;;5103671;28;20040;-64
2022/01/16 13:12:26;;;;;;;18.77;8.05;;;;;;;;;;5073505;28;20055;-64
2022/01/16 13:14:52;;;;;;;13.85;7.35;;;;;;;;;;5073997;28;20089;-64
2022/01/16 13:17:19;;;;;;;19.58;8.35;;;;;;;;;;5074861;28;20696;-64
2022/01/16 13:19:53;;;;;;;21.98;8.07;;;;;;;;;;5107270;28;20131;-64
2022/01/16 13:22:26;;;;;;;17.38;7.93;;;;;;;;;;5073841;28;20060;-64
2022/01/16 13:24:52;;;;;;;22.25;9.15;;;;;;;;;;5107243;28;20464;-64
2022/01/16 13:27:19;;;;;;;17.27;8.65;;;;;;;;;;5074338;28;20114;-64
2022/01/16 13:29:49;;;;;;;23.05;9.30;;;;;;;;;;5073850;28;20763;-64
2022/01/16 13:32:16;;;;;;;23.50;9.15;;;;;;;;;;5074308;28;20037;-64
2022/01/16 13:34:47;;;;;;;19.17;8.30;;;;;;;;;;5074614;28;20491;-64
2022/01/16 13:37:15;;;;;;;15.15;8.75;;;;;;;;;;5073881;28;20132;-64
2022/01/16 13:39:42;;;;;;;20.90;8.00;;;;;;;;;;5074603;28;20041;-64
2022/01/16 13:42:30;;;;;;;15.48;7.75;;;;;;;;;;5074341;28;20048;-64
2022/01/16 13:45:23;;;;;;;15.75;8.43;;;;;;;;;;5072458;28;20052;-64
2022/01/16 13:47:50;;;;;;;17.00;8.10;;;;;;;;;;5065737;28;20053;-64
2022/01/16 13:50:16;;;;;;;18.63;8.00;;;;;;;;;;5073791;28;20041;-64
2022/01/16 13:52:55;;;;;;;17.77;7.38;;;;;;;;;;5074338;28;20093;-64
2022/01/16 13:55:22;;;;;;;20.17;8.15;;;;;;;;;;5074283;28;20059;-64
2022/01/16 13:57:48;;;;;;;18.05;8.02;;;;;;;;;;5072318;28;20044;-64
2022/01/16 14:00:15;;;;;;;21.25;8.27;;;;;;;;;;5073935;28;20490;-64
2022/01/16 14:02:41;;;;;;;17.30;7.75;;;;;;;;;;5072501;28;20051;-64
2022/01/16 14:05:07;;;;;;;18.02;8.45;;;;;;;;;;5073279;28;20044;-64
2022/01/16 14:07:33;;;;;;;15.90;7.15;;;;;;;;;;5074152;28;20375;-64
2022/01/16 14:10:00;;;;;;;21.17;7.63;;;;;;;;;;5073854;28;20032;-64
2022/01/16 14:12:26;;;;;;;21.25;8.00;;;;;;;;;;5071817;28;20127;-64
2022/01/16 14:14:52;;;;;;;14.15;7.43;;;;;;;;;;5073811;28;20090;-64
2022/01/16 14:22:17;;;;;;;15.80;7.97;;;;;;;;;;5072755;28;20061;-64
2022/01/16 14:24:46;;;;;;;17.17;7.38;;;;;;;;;;5073580;28;20419;-64
2022/01/16 14:27:13;;;;;;;15.30;7.63;;;;;;;;;;5072586;28;20087;-64
2022/01/16 14:29:40;;;;;;;17.40;7.20;;;;;;;;;;5073569;28;20048;-64
2022/01/16 14:32:07;;;;;;;19.65;6.70;;;;;;;;;;5073298;28;20037;-64
2022/01/16 14:34:34;;;;;;;17.27;6.90;;;;;;;;;;5072640;28;20051;-64
2022/01/16 14:37:00;;;;;;;17.15;6.43;;;;;;;;;;5073520;28;20410;-64
2022/01/16 14:39:26;;;;;;;16.80;6.80;;;;;;;;;;5073448;28;20044;-64
2022/01/16 14:41:53;;;;;;;14.48;6.68;;;;;;;;;;5072653;28;20101;-64
2022/01/16 14:44:20;;;;;;;20.75;7.80;;;;;;;;;;5105631;28;20566;-64
2022/01/16 14:46:46;;;;;;;17.73;7.50;;;;;;;;;;5073025;28;20387;-64
2022/01/16 14:49:13;;;;;;;16.25;6.88;;;;;;;;;;5105044;28;20475;-64
2022/01/16 14:51:39;;;;;;;12.90;6.60;;;;;;;;;;5073034;28;20033;-64
2022/01/16 14:54:06;;;;;;;14.75;6.88;;;;;;;;;;5072815;28;20041;-64
2022/01/16 14:56:32;;;;;;;14.43;6.45;;;;;;;;;;5072537;28;20039;-64
2022/01/16 14:58:58;;;;;;;16.02;6.63;;;;;;;;;;5072677;28;20101;-64
2022/01/16 15:01:24;;;;;;;21.20;7.75;;;;;;;;;;5072814;28;20129;-64